sensor_id;sensor_type;location;lat;lon;timestamp;temperature;humidity
18218;DHT22;9234;49.344;11.120;2023-03-03T00:01:37;0.50;99.90
18218;DHT22;9234;49.344;11.120;2023-03-03T00:04:05;0.50;99.90
18218;DHT22;9234;49.344;11.120;2023-03-03T00:06:34;0.50;99.90
18218;DHT22;9234;49.344;11.120;2023-03-03T00:09:02;0.50;99.90
18218;DHT22;9234;49.344;11.120;2023-03-03T00:11:30;0.50;99.90
18218;DHT22;9234;49.344;11.120;2023-03-03T00:13:59;0.40;99.90
18218;DHT22;9234;49.344;11.120;2023-03-03T00:16:30;0.40;99.90
18218;DHT22;9234;49.344;11.120;2023-03-03T00:19:12;0.40;99.90
18218;DHT22;9234;49.344;11.120;2023-03-03T00:21:44;0.40;99.90
18218;DHT22;9234;49.344;11.120;2023-03-03T00:24:21;0.30;99.90
18218;DHT22;9234;49.344;11.120;2023-03-03T00:26:52;0.30;99.90
18218;DHT22;9234;49.344;11.120;2023-03-03T00:29:40;0.30;99.90
18218;DHT22;9234;49.344;11.120;2023-03-03T00:32:21;0.30;99.90
18218;DHT22;9234;49.344;11.120;2023-03-03T00:34:53;0.30;99.90
18218;DHT22;9234;49.344;11.120;2023-03-03T00:37:29;0.20;99.90
18218;DHT22;9234;49.344;11.120;2023-03-03T00:40:18;0.20;99.90
18218;DHT22;9234;49.344;11.120;2023-03-03T00:42:51;0.20;99.90
18218;DHT22;9234;49.344;11.120;2023-03-03T00:45:25;0.20;99.90
18218;DHT22;9234;49.344;11.120;2023-03-03T00:47:58;0.10;99.90
18218;DHT22;9234;49.344;11.120;2023-03-03T00:50:43;0.10;99.90
18218;DHT22;9234;49.344;11.120;2023-03-03T00:53:13;0.10;99.90
18218;DHT22;9234;49.344;11.120;2023-03-03T00:55:44;0.10;99.90
18218;DHT22;9234;49.344;11.120;2023-03-03T00:58:14;0.10;99.90
18218;DHT22;9234;49.344;11.120;2023-03-03T01:00:46;0.10;99.90
18218;DHT22;9234;49.344;11.120;2023-03-03T01:03:20;0.10;99.90
18218;DHT22;9234;49.344;11.120;2023-03-03T01:05:51;0.20;99.90
18218;DHT22;9234;49.344;11.120;2023-03-03T01:08:20;0.20;99.90
18218;DHT22;9234;49.344;11.120;2023-03-03T01:10:51;0.20;99.90
18218;DHT22;9234;49.344;11.120;2023-03-03T01:13:23;0.20;99.90
18218;DHT22;9234;49.344;11.120;2023-03-03T01:15:54;0.30;99.90
18218;DHT22;9234;49.344;11.120;2023-03-03T01:18:23;0.30;99.90
18218;DHT22;9234;49.344;11.120;2023-03-03T01:20:52;0.30;99.90
18218;DHT22;9234;49.344;11.120;2023-03-03T01:23:21;0.30;99.90
18218;DHT22;9234;49.344;11.120;2023-03-03T01:25:49;0.30;99.90
18218;DHT22;9234;49.344;11.120;2023-03-03T01:28:18;0.30;99.90
18218;DHT22;9234;49.344;11.120;2023-03-03T01:30:46;0.30;99.90
18218;DHT22;9234;49.344;11.120;2023-03-03T01:33:15;0.30;99.90
18218;DHT22;9234;49.344;11.120;2023-03-03T01:35:45;0.30;99.90
18218;DHT22;9234;49.344;11.120;2023-03-03T01:38:15;0.40;99.90
18218;DHT22;9234;49.344;11.120;2023-03-03T01:40:52;0.40;99.90
18218;DHT22;9234;49.344;11.120;2023-03-03T01:43:22;0.40;99.90
18218;DHT22;9234;49.344;11.120;2023-03-03T01:46:20;0.50;99.90
18218;DHT22;9234;49.344;11.120;2023-03-03T01:49:09;0.50;99.90
18218;DHT22;9234;49.344;11.120;2023-03-03T01:51:47;0.50;99.90
18218;DHT22;9234;49.344;11.120;2023-03-03T01:54:21;0.60;99.90
18218;DHT22;9234;49.344;11.120;2023-03-03T01:56:56;0.60;99.90
18218;DHT22;9234;49.344;11.120;2023-03-03T01:59:31;0.60;99.90
18218;DHT22;9234;49.344;11.120;2023-03-03T02:02:02;0.70;99.90
18218;DHT22;9234;49.344;11.120;2023-03-03T02:04:33;0.80;99.90
18218;DHT22;9234;49.344;11.120;2023-03-03T02:07:06;0.80;99.90
18218;DHT22;9234;49.344;11.120;2023-03-03T02:09:44;0.80;99.90
18218;DHT22;9234;49.344;11.120;2023-03-03T02:12:20;0.80;99.90
18218;DHT22;9234;49.344;11.120;2023-03-03T02:14:52;0.80;99.90
18218;DHT22;9234;49.344;11.120;2023-03-03T02:17:21;0.80;99.90
18218;DHT22;9234;49.344;11.120;2023-03-03T02:19:55;0.70;99.90
18218;DHT22;9234;49.344;11.120;2023-03-03T02:22:35;0.70;99.90
18218;DHT22;9234;49.344;11.120;2023-03-03T02:25:17;0.60;99.90
18218;DHT22;9234;49.344;11.120;2023-03-03T02:27:52;0.60;99.90
18218;DHT22;9234;49.344;11.120;2023-03-03T02:30:24;0.50;99.90
18218;DHT22;9234;49.344;11.120;2023-03-03T02:32:53;0.50;99.90
18218;DHT22;9234;49.344;11.120;2023-03-03T02:35:28;0.40;99.90
18218;DHT22;9234;49.344;11.120;2023-03-03T02:38:09;0.40;99.90
18218;DHT22;9234;49.344;11.120;2023-03-03T02:40:51;0.30;99.90
18218;DHT22;9234;49.344;11.120;2023-03-03T02:43:32;0.30;99.90
18218;DHT22;9234;49.344;11.120;2023-03-03T02:46:06;0.20;99.90
18218;DHT22;9234;49.344;11.120;2023-03-03T02:48:34;0.20;99.90
18218;DHT22;9234;49.344;11.120;2023-03-03T02:51:02;0.10;99.90
18218;DHT22;9234;49.344;11.120;2023-03-03T02:53:31;0.10;99.90
18218;DHT22;9234;49.344;11.120;2023-03-03T02:55:59;0.00;99.90
18218;DHT22;9234;49.344;11.120;2023-03-03T02:58:31;0.00;99.90
18218;DHT22;9234;49.344;11.120;2023-03-03T03:01:01;-0.10;99.90
18218;DHT22;9234;49.344;11.120;2023-03-03T03:03:29;-0.10;99.90
18218;DHT22;9234;49.344;11.120;2023-03-03T03:06:00;-0.10;99.90
18218;DHT22;9234;49.344;11.120;2023-03-03T03:08:29;-0.20;99.90
18218;DHT22;9234;49.344;11.120;2023-03-03T03:10:57;-0.20;99.90
18218;DHT22;9234;49.344;11.120;2023-03-03T03:13:27;-0.20;99.90
18218;DHT22;9234;49.344;11.120;2023-03-03T03:15:58;-0.30;99.90
18218;DHT22;9234;49.344;11.120;2023-03-03T03:18:27;-0.30;99.90
18218;DHT22;9234;49.344;11.120;2023-03-03T03:20:56;-0.30;99.90
18218;DHT22;9234;49.344;11.120;2023-03-03T03:23:24;-0.30;99.90
18218;DHT22;9234;49.344;11.120;2023-03-03T03:25:54;-0.40;99.90
18218;DHT22;9234;49.344;11.120;2023-03-03T03:28:26;-0.40;99.90
18218;DHT22;9234;49.344;11.120;2023-03-03T03:30:57;-0.50;99.90
18218;DHT22;9234;49.344;11.120;2023-03-03T03:33:26;-0.50;99.90
18218;DHT22;9234;49.344;11.120;2023-03-03T03:35:56;-0.50;99.90
18218;DHT22;9234;49.344;11.120;2023-03-03T03:38:25;-0.60;99.90
18218;DHT22;9234;49.344;11.120;2023-03-03T03:40:55;-0.60;99.90
18218;DHT22;9234;49.344;11.120;2023-03-03T03:43:24;-0.60;99.90
18218;DHT22;9234;49.344;11.120;2023-03-03T03:45:54;-0.70;99.90
18218;DHT22;9234;49.344;11.120;2023-03-03T03:48:25;-0.70;99.90
18218;DHT22;9234;49.344;11.120;2023-03-03T03:50:55;-0.70;99.90
18218;DHT22;9234;49.344;11.120;2023-03-03T03:53:25;-0.70;99.90
18218;DHT22;9234;49.344;11.120;2023-03-03T03:55:53;-0.80;99.90
18218;DHT22;9234;49.344;11.120;2023-03-03T03:58:22;-0.80;99.90
18218;DHT22;9234;49.344;11.120;2023-03-03T04:01:01;-0.80;99.90
18218;DHT22;9234;49.344;11.120;2023-03-03T04:03:31;-0.80;99.90
18218;DHT22;9234;49.344;11.120;2023-03-03T04:06:03;-0.90;99.90
18218;DHT22;9234;49.344;11.120;2023-03-03T04:08:33;-0.90;99.90
18218;DHT22;9234;49.344;11.120;2023-03-03T04:11:01;-0.90;99.90
18218;DHT22;9234;49.344;11.120;2023-03-03T04:13:31;-0.90;99.90
18218;DHT22;9234;49.344;11.120;2023-03-03T04:16:02;-0.90;99.90
18218;DHT22;9234;49.344;11.120;2023-03-03T04:18:33;-1.00;99.90
18218;DHT22;9234;49.344;11.120;2023-03-03T04:21:02;-1.00;99.90
18218;DHT22;9234;49.344;11.120;2023-03-03T04:23:32;-1.00;99.90
18218;DHT22;9234;49.344;11.120;2023-03-03T04:26:01;-1.10;99.90
18218;DHT22;9234;49.344;11.120;2023-03-03T04:28:29;-1.10;99.90
18218;DHT22;9234;49.344;11.120;2023-03-03T04:30:58;-1.10;99.90
18218;DHT22;9234;49.344;11.120;2023-03-03T04:33:29;-1.10;99.90
18218;DHT22;9234;49.344;11.120;2023-03-03T04:35:59;-1.10;99.90
18218;DHT22;9234;49.344;11.120;2023-03-03T04:38:28;-1.20;99.90
18218;DHT22;9234;49.344;11.120;2023-03-03T04:40:56;-1.20;99.90
18218;DHT22;9234;49.344;11.120;2023-03-03T04:43:27;-1.20;99.90
18218;DHT22;9234;49.344;11.120;2023-03-03T04:45:56;-1.20;99.90
18218;DHT22;9234;49.344;11.120;2023-03-03T04:48:24;-1.30;99.90
18218;DHT22;9234;49.344;11.120;2023-03-03T04:50:53;-1.20;99.90
18218;DHT22;9234;49.344;11.120;2023-03-03T04:53:23;-1.30;99.90
18218;DHT22;9234;49.344;11.120;2023-03-03T04:55:52;-1.30;99.90
18218;DHT22;9234;49.344;11.120;2023-03-03T04:58:21;-1.30;99.90
18218;DHT22;9234;49.344;11.120;2023-03-03T05:00:53;-1.30;99.90
18218;DHT22;9234;49.344;11.120;2023-03-03T05:03:26;-1.40;99.90
18218;DHT22;9234;49.344;11.120;2023-03-03T05:05:54;-1.40;99.90
18218;DHT22;9234;49.344;11.120;2023-03-03T05:08:24;-1.40;99.90
18218;DHT22;9234;49.344;11.120;2023-03-03T05:10:53;-1.40;99.90
18218;DHT22;9234;49.344;11.120;2023-03-03T05:13:21;-1.40;99.90
18218;DHT22;9234;49.344;11.120;2023-03-03T05:15:51;-1.40;99.90
18218;DHT22;9234;49.344;11.120;2023-03-03T05:18:21;-1.40;99.90
18218;DHT22;9234;49.344;11.120;2023-03-03T05:20:51;-1.50;99.90
18218;DHT22;9234;49.344;11.120;2023-03-03T05:23:20;-1.50;99.90
18218;DHT22;9234;49.344;11.120;2023-03-03T05:25:50;-1.50;99.90
18218;DHT22;9234;49.344;11.120;2023-03-03T05:28:18;-1.50;99.90
18218;DHT22;9234;49.344;11.120;2023-03-03T05:30:46;-1.50;99.90
18218;DHT22;9234;49.344;11.120;2023-03-03T05:33:17;-1.60;99.90
18218;DHT22;9234;49.344;11.120;2023-03-03T05:35:45;-1.60;99.90
18218;DHT22;9234;49.344;11.120;2023-03-03T05:38:14;-1.60;99.90
18218;DHT22;9234;49.344;11.120;2023-03-03T05:40:42;-1.60;99.90
18218;DHT22;9234;49.344;11.120;2023-03-03T05:43:12;-1.60;99.90
18218;DHT22;9234;49.344;11.120;2023-03-03T05:45:40;-1.60;99.90
18218;DHT22;9234;49.344;11.120;2023-03-03T05:48:09;-1.60;99.90
18218;DHT22;9234;49.344;11.120;2023-03-03T05:50:38;-1.60;99.90
18218;DHT22;9234;49.344;11.120;2023-03-03T05:53:06;-1.60;99.90
18218;DHT22;9234;49.344;11.120;2023-03-03T05:55:34;-1.60;99.90
18218;DHT22;9234;49.344;11.120;2023-03-03T05:58:03;-1.60;99.90
18218;DHT22;9234;49.344;11.120;2023-03-03T06:00:32;-1.60;99.90
18218;DHT22;9234;49.344;11.120;2023-03-03T06:03:01;-1.70;99.90
18218;DHT22;9234;49.344;11.120;2023-03-03T06:05:29;-1.60;99.90
18218;DHT22;9234;49.344;11.120;2023-03-03T06:07:57;-1.70;99.90
18218;DHT22;9234;49.344;11.120;2023-03-03T06:10:26;-1.70;99.90
18218;DHT22;9234;49.344;11.120;2023-03-03T06:12:57;-1.70;99.90
18218;DHT22;9234;49.344;11.120;2023-03-03T06:15:27;-1.70;99.90
18218;DHT22;9234;49.344;11.120;2023-03-03T06:17:56;-1.70;99.90
18218;DHT22;9234;49.344;11.120;2023-03-03T06:20:25;-1.70;99.90
18218;DHT22;9234;49.344;11.120;2023-03-03T06:22:53;-1.70;99.90
18218;DHT22;9234;49.344;11.120;2023-03-03T06:25:21;-1.70;99.90
18218;DHT22;9234;49.344;11.120;2023-03-03T06:27:49;-1.70;99.90
18218;DHT22;9234;49.344;11.120;2023-03-03T06:30:18;-1.80;99.90
18218;DHT22;9234;49.344;11.120;2023-03-03T06:32:47;-1.70;99.90
18218;DHT22;9234;49.344;11.120;2023-03-03T06:35:17;-1.70;99.90
18218;DHT22;9234;49.344;11.120;2023-03-03T06:37:45;-1.70;99.90
18218;DHT22;9234;49.344;11.120;2023-03-03T06:40:16;-1.70;99.90
18218;DHT22;9234;49.344;11.120;2023-03-03T06:42:45;-1.70;99.90
18218;DHT22;9234;49.344;11.120;2023-03-03T06:45:13;-1.60;99.90
18218;DHT22;9234;49.344;11.120;2023-03-03T06:47:42;-1.60;99.90
18218;DHT22;9234;49.344;11.120;2023-03-03T06:50:11;-1.50;99.90
18218;DHT22;9234;49.344;11.120;2023-03-03T06:52:41;-1.50;99.90
18218;DHT22;9234;49.344;11.120;2023-03-03T06:55:12;-1.40;99.90
18218;DHT22;9234;49.344;11.120;2023-03-03T06:57:46;-1.30;99.90
18218;DHT22;9234;49.344;11.120;2023-03-03T07:00:17;-1.10;99.90
18218;DHT22;9234;49.344;11.120;2023-03-03T07:02:54;-1.00;99.90
18218;DHT22;9234;49.344;11.120;2023-03-03T07:05:27;-0.90;99.90
18218;DHT22;9234;49.344;11.120;2023-03-03T07:07:58;-0.80;99.90
18218;DHT22;9234;49.344;11.120;2023-03-03T07:10:27;-0.70;99.90
18218;DHT22;9234;49.344;11.120;2023-03-03T07:13:05;-0.60;99.90
18218;DHT22;9234;49.344;11.120;2023-03-03T07:15:44;-0.50;99.90
18218;DHT22;9234;49.344;11.120;2023-03-03T07:18:24;-0.40;99.90
18218;DHT22;9234;49.344;11.120;2023-03-03T07:21:15;-0.30;99.90
18218;DHT22;9234;49.344;11.120;2023-03-03T07:23:49;-0.20;99.90
18218;DHT22;9234;49.344;11.120;2023-03-03T07:26:20;-0.10;99.90
18218;DHT22;9234;49.344;11.120;2023-03-03T07:28:53;0.10;99.90
18218;DHT22;9234;49.344;11.120;2023-03-03T07:31:27;0.20;99.90
18218;DHT22;9234;49.344;11.120;2023-03-03T07:33:59;0.30;99.90
18218;DHT22;9234;49.344;11.120;2023-03-03T07:36:35;0.40;99.90
18218;DHT22;9234;49.344;11.120;2023-03-03T07:39:24;0.60;99.90
18218;DHT22;9234;49.344;11.120;2023-03-03T07:45:23;0.80;99.90
18218;DHT22;9234;49.344;11.120;2023-03-03T07:48:00;1.00;99.90
18218;DHT22;9234;49.344;11.120;2023-03-03T07:50:36;1.10;99.90
18218;DHT22;9234;49.344;11.120;2023-03-03T07:53:13;1.20;99.90
18218;DHT22;9234;49.344;11.120;2023-03-03T07:55:52;1.30;99.90
18218;DHT22;9234;49.344;11.120;2023-03-03T07:58:33;1.40;99.90
18218;DHT22;9234;49.344;11.120;2023-03-03T08:01:27;1.40;99.90
18218;DHT22;9234;49.344;11.120;2023-03-03T08:04:21;1.50;99.90
18218;DHT22;9234;49.344;11.120;2023-03-03T08:06:54;1.60;99.90
18218;DHT22;9234;49.344;11.120;2023-03-03T08:09:40;1.70;99.90
18218;DHT22;9234;49.344;11.120;2023-03-03T08:12:27;1.80;99.90
18218;DHT22;9234;49.344;11.120;2023-03-03T08:15:16;1.90;99.90
18218;DHT22;9234;49.344;11.120;2023-03-03T08:17:47;1.90;99.90
18218;DHT22;9234;49.344;11.120;2023-03-03T08:20:51;2.00;99.90
18218;DHT22;9234;49.344;11.120;2023-03-03T08:23:21;2.10;99.90
18218;DHT22;9234;49.344;11.120;2023-03-03T08:25:51;2.20;99.90
18218;DHT22;9234;49.344;11.120;2023-03-03T08:28:21;2.20;99.90
18218;DHT22;9234;49.344;11.120;2023-03-03T08:30:50;2.30;99.90
18218;DHT22;9234;49.344;11.120;2023-03-03T08:33:35;2.40;99.90
18218;DHT22;9234;49.344;11.120;2023-03-03T08:36:04;2.50;99.90
18218;DHT22;9234;49.344;11.120;2023-03-03T08:38:35;2.60;99.90
18218;DHT22;9234;49.344;11.120;2023-03-03T08:41:04;2.70;99.90
18218;DHT22;9234;49.344;11.120;2023-03-03T08:43:34;2.80;99.90
18218;DHT22;9234;49.344;11.120;2023-03-03T08:46:04;2.90;99.90
18218;DHT22;9234;49.344;11.120;2023-03-03T08:48:36;3.00;99.90
18218;DHT22;9234;49.344;11.120;2023-03-03T08:51:05;3.00;99.90
18218;DHT22;9234;49.344;11.120;2023-03-03T08:53:34;3.10;99.90
18218;DHT22;9234;49.344;11.120;2023-03-03T08:56:04;3.10;99.90
18218;DHT22;9234;49.344;11.120;2023-03-03T08:58:35;3.20;99.90
18218;DHT22;9234;49.344;11.120;2023-03-03T09:01:03;3.30;99.90
18218;DHT22;9234;49.344;11.120;2023-03-03T09:03:32;3.40;99.90
18218;DHT22;9234;49.344;11.120;2023-03-03T09:06:00;3.50;99.90
18218;DHT22;9234;49.344;11.120;2023-03-03T09:08:28;3.60;99.90
18218;DHT22;9234;49.344;11.120;2023-03-03T09:10:56;3.70;99.90
18218;DHT22;9234;49.344;11.120;2023-03-03T09:13:26;3.80;99.90
18218;DHT22;9234;49.344;11.120;2023-03-03T09:15:58;3.90;99.90
18218;DHT22;9234;49.344;11.120;2023-03-03T09:18:31;4.00;99.90
18218;DHT22;9234;49.344;11.120;2023-03-03T09:21:18;4.10;99.90
18218;DHT22;9234;49.344;11.120;2023-03-03T09:23:53;4.20;99.90
18218;DHT22;9234;49.344;11.120;2023-03-03T09:26:25;4.30;99.90
18218;DHT22;9234;49.344;11.120;2023-03-03T09:29:14;4.50;99.90
18218;DHT22;9234;49.344;11.120;2023-03-03T09:31:48;4.60;99.90
18218;DHT22;9234;49.344;11.120;2023-03-03T09:34:23;4.70;99.90
18218;DHT22;9234;49.344;11.120;2023-03-03T09:36:57;4.90;99.90
18218;DHT22;9234;49.344;11.120;2023-03-03T09:39:29;5.00;99.90
18218;DHT22;9234;49.344;11.120;2023-03-03T09:42:23;5.10;99.90
18218;DHT22;9234;49.344;11.120;2023-03-03T09:45:43;5.20;99.90
18218;DHT22;9234;49.344;11.120;2023-03-03T09:48:43;5.30;99.90
18218;DHT22;9234;49.344;11.120;2023-03-03T09:51:39;5.50;99.90
18218;DHT22;9234;49.344;11.120;2023-03-03T09:54:40;5.60;99.90
18218;DHT22;9234;49.344;11.120;2023-03-03T09:57:23;5.80;99.90
18218;DHT22;9234;49.344;11.120;2023-03-03T10:00:11;5.90;99.90
18218;DHT22;9234;49.344;11.120;2023-03-03T10:03:02;6.00;99.90
18218;DHT22;9234;49.344;11.120;2023-03-03T10:05:54;6.20;99.90
18218;DHT22;9234;49.344;11.120;2023-03-03T10:08:36;6.40;99.90
18218;DHT22;9234;49.344;11.120;2023-03-03T10:11:20;6.50;99.90
18218;DHT22;9234;49.344;11.120;2023-03-03T10:14:27;6.60;99.90
18218;DHT22;9234;49.344;11.120;2023-03-03T10:17:21;6.80;99.90
18218;DHT22;9234;49.344;11.120;2023-03-03T10:20:06;7.00;99.90
18218;DHT22;9234;49.344;11.120;2023-03-03T10:22:53;7.10;99.90
18218;DHT22;9234;49.344;11.120;2023-03-03T10:25:37;7.20;99.90
18218;DHT22;9234;49.344;11.120;2023-03-03T10:28:26;7.30;99.90
18218;DHT22;9234;49.344;11.120;2023-03-03T10:31:22;7.40;99.90
18218;DHT22;9234;49.344;11.120;2023-03-03T10:34:13;7.70;99.90
18218;DHT22;9234;49.344;11.120;2023-03-03T10:36:55;7.90;99.90
18218;DHT22;9234;49.344;11.120;2023-03-03T10:40:02;8.20;99.10
18218;DHT22;9234;49.344;11.120;2023-03-03T10:43:12;8.30;98.20
18218;DHT22;9234;49.344;11.120;2023-03-03T10:46:14;8.60;98.70
18218;DHT22;9234;49.344;11.120;2023-03-03T10:49:18;8.80;98.70
18218;DHT22;9234;49.344;11.120;2023-03-03T10:55:24;9.40;97.50
18218;DHT22;9234;49.344;11.120;2023-03-03T11:01:22;9.80;97.00
18218;DHT22;9234;49.344;11.120;2023-03-03T11:04:19;10.00;94.60
18218;DHT22;9234;49.344;11.120;2023-03-03T11:07:00;10.10;93.60
18218;DHT22;9234;49.344;11.120;2023-03-03T11:09:43;10.20;93.80
18218;DHT22;9234;49.344;11.120;2023-03-03T11:12:38;10.40;93.00
18218;DHT22;9234;49.344;11.120;2023-03-03T11:15:27;10.50;92.50
18218;DHT22;9234;49.344;11.120;2023-03-03T11:18:16;10.70;91.50
18218;DHT22;9234;49.344;11.120;2023-03-03T11:21:04;10.90;92.40
18218;DHT22;9234;49.344;11.120;2023-03-03T11:23:52;11.20;91.90
18218;DHT22;9234;49.344;11.120;2023-03-03T11:27:01;11.30;90.30
18218;DHT22;9234;49.344;11.120;2023-03-03T11:29:49;11.60;91.10
18218;DHT22;9234;49.344;11.120;2023-03-03T11:32:36;11.80;90.10
18218;DHT22;9234;49.344;11.120;2023-03-03T11:35:21;12.00;87.60
18218;DHT22;9234;49.344;11.120;2023-03-03T11:38:02;12.10;87.60
18218;DHT22;9234;49.344;11.120;2023-03-03T11:40:46;12.30;87.30
18218;DHT22;9234;49.344;11.120;2023-03-03T11:43:21;12.50;86.40
18218;DHT22;9234;49.344;11.120;2023-03-03T11:46:06;12.70;84.60
18218;DHT22;9234;49.344;11.120;2023-03-03T11:48:47;12.80;82.30
18218;DHT22;9234;49.344;11.120;2023-03-03T11:51:31;12.90;82.90
18218;DHT22;9234;49.344;11.120;2023-03-03T11:54:12;13.10;83.90
18218;DHT22;9234;49.344;11.120;2023-03-03T11:56:47;13.30;85.10
18218;DHT22;9234;49.344;11.120;2023-03-03T11:59:34;13.50;83.90
18218;DHT22;9234;49.344;11.120;2023-03-03T12:02:26;13.60;80.90
18218;DHT22;9234;49.344;11.120;2023-03-03T12:05:16;13.80;80.80
18218;DHT22;9234;49.344;11.120;2023-03-03T12:08:01;13.90;80.30
18218;DHT22;9234;49.344;11.120;2023-03-03T12:10:45;14.10;80.70
18218;DHT22;9234;49.344;11.120;2023-03-03T12:13:26;14.00;78.40
18218;DHT22;9234;49.344;11.120;2023-03-03T12:16:08;14.00;78.90
18218;DHT22;9234;49.344;11.120;2023-03-03T12:18:57;14.00;78.50
18218;DHT22;9234;49.344;11.120;2023-03-03T12:21:45;14.00;78.10
18218;DHT22;9234;49.344;11.120;2023-03-03T12:24:32;13.90;77.80
18218;DHT22;9234;49.344;11.120;2023-03-03T12:27:18;14.10;79.50
18218;DHT22;9234;49.344;11.120;2023-03-03T12:30:00;14.30;79.20
18218;DHT22;9234;49.344;11.120;2023-03-03T12:32:52;14.50;78.90
18218;DHT22;9234;49.344;11.120;2023-03-03T12:35:50;14.80;79.70
18218;DHT22;9234;49.344;11.120;2023-03-03T12:38:37;14.80;75.60
18218;DHT22;9234;49.344;11.120;2023-03-03T12:41:17;14.80;76.30
18218;DHT22;9234;49.344;11.120;2023-03-03T12:44:00;15.00;77.40
18218;DHT22;9234;49.344;11.120;2023-03-03T12:46:43;15.00;74.70
18218;DHT22;9234;49.344;11.120;2023-03-03T12:49:13;15.10;75.40
18218;DHT22;9234;49.344;11.120;2023-03-03T12:52:01;15.30;74.00
18218;DHT22;9234;49.344;11.120;2023-03-03T12:54:55;15.30;73.00
18218;DHT22;9234;49.344;11.120;2023-03-03T12:57:39;15.40;73.40
18218;DHT22;9234;49.344;11.120;2023-03-03T13:00:39;15.50;72.90
18218;DHT22;9234;49.344;11.120;2023-03-03T13:03:25;15.70;74.00
18218;DHT22;9234;49.344;11.120;2023-03-03T13:06:27;16.00;72.70
18218;DHT22;9234;49.344;11.120;2023-03-03T13:09:07;15.90;70.70
18218;DHT22;9234;49.344;11.120;2023-03-03T13:12:01;16.00;70.00
18218;DHT22;9234;49.344;11.120;2023-03-03T13:14:52;16.10;71.10
18218;DHT22;9234;49.344;11.120;2023-03-03T13:17:29;16.30;70.00
18218;DHT22;9234;49.344;11.120;2023-03-03T13:20:07;16.50;68.80
18218;DHT22;9234;49.344;11.120;2023-03-03T13:22:47;16.50;67.00
18218;DHT22;9234;49.344;11.120;2023-03-03T13:25:34;16.40;66.50
18218;DHT22;9234;49.344;11.120;2023-03-03T13:28:16;16.40;66.10
18218;DHT22;9234;49.344;11.120;2023-03-03T13:30:51;16.60;67.90
18218;DHT22;9234;49.344;11.120;2023-03-03T13:33:25;16.90;66.00
18218;DHT22;9234;49.344;11.120;2023-03-03T13:35:58;16.90;65.70
18218;DHT22;9234;49.344;11.120;2023-03-03T13:38:30;17.20;67.20
18218;DHT22;9234;49.344;11.120;2023-03-03T13:41:08;17.40;66.80
18218;DHT22;9234;49.344;11.120;2023-03-03T13:43:45;17.60;63.30
18218;DHT22;9234;49.344;11.120;2023-03-03T13:46:23;17.60;64.00
18218;DHT22;9234;49.344;11.120;2023-03-03T13:49:17;17.70;63.80
18218;DHT22;9234;49.344;11.120;2023-03-03T13:52:00;17.80;62.80
18218;DHT22;9234;49.344;11.120;2023-03-03T13:54:42;17.80;61.70
18218;DHT22;9234;49.344;11.120;2023-03-03T13:57:35;17.90;61.80
18218;DHT22;9234;49.344;11.120;2023-03-03T14:00:38;17.90;61.00
18218;DHT22;9234;49.344;11.120;2023-03-03T14:03:55;17.90;60.00
18218;DHT22;9234;49.344;11.120;2023-03-03T14:06:42;17.60;59.20
18218;DHT22;9234;49.344;11.120;2023-03-03T14:09:34;17.60;61.00
18218;DHT22;9234;49.344;11.120;2023-03-03T14:12:17;17.50;60.20
18218;DHT22;9234;49.344;11.120;2023-03-03T14:15:00;17.50;60.20
18218;DHT22;9234;49.344;11.120;2023-03-03T14:17:39;17.40;60.00
18218;DHT22;9234;49.344;11.120;2023-03-03T14:20:20;17.20;59.30
18218;DHT22;9234;49.344;11.120;2023-03-03T14:22:55;17.00;59.80
18218;DHT22;9234;49.344;11.120;2023-03-03T14:25:57;16.90;59.70
18218;DHT22;9234;49.344;11.120;2023-03-03T14:28:28;16.60;59.60
18218;DHT22;9234;49.344;11.120;2023-03-03T14:31:15;16.60;60.30
18218;DHT22;9234;49.344;11.120;2023-03-03T14:33:59;16.40;61.30
18218;DHT22;9234;49.344;11.120;2023-03-03T14:36:31;16.50;61.60
18218;DHT22;9234;49.344;11.120;2023-03-03T14:39:27;16.60;60.30
18218;DHT22;9234;49.344;11.120;2023-03-03T14:41:59;16.70;59.60
18218;DHT22;9234;49.344;11.120;2023-03-03T14:44:31;16.50;58.20
18218;DHT22;9234;49.344;11.120;2023-03-03T14:47:26;16.40;58.60
18218;DHT22;9234;49.344;11.120;2023-03-03T14:49:56;16.30;58.70
18218;DHT22;9234;49.344;11.120;2023-03-03T14:52:28;16.20;58.80
18218;DHT22;9234;49.344;11.120;2023-03-03T14:54:58;16.30;59.70
18218;DHT22;9234;49.344;11.120;2023-03-03T14:57:38;16.30;59.40
18218;DHT22;9234;49.344;11.120;2023-03-03T15:00:29;16.30;58.90
18218;DHT22;9234;49.344;11.120;2023-03-03T15:03:17;16.50;58.60
18218;DHT22;9234;49.344;11.120;2023-03-03T15:05:50;16.60;58.40
18218;DHT22;9234;49.344;11.120;2023-03-03T15:08:27;16.60;57.20
18218;DHT22;9234;49.344;11.120;2023-03-03T15:11:12;16.70;57.70
18218;DHT22;9234;49.344;11.120;2023-03-03T15:13:47;16.60;57.50
18218;DHT22;9234;49.344;11.120;2023-03-03T15:16:17;16.60;57.70
18218;DHT22;9234;49.344;11.120;2023-03-03T15:19:20;16.50;57.80
18218;DHT22;9234;49.344;11.120;2023-03-03T15:22:11;16.70;58.60
18218;DHT22;9234;49.344;11.120;2023-03-03T15:24:50;16.70;58.50
18218;DHT22;9234;49.344;11.120;2023-03-03T15:27:30;16.60;59.20
18218;DHT22;9234;49.344;11.120;2023-03-03T15:30:10;16.70;60.00
18218;DHT22;9234;49.344;11.120;2023-03-03T15:32:53;16.70;60.20
18218;DHT22;9234;49.344;11.120;2023-03-03T15:35:35;16.90;60.50
18218;DHT22;9234;49.344;11.120;2023-03-03T15:38:22;16.80;60.00
18218;DHT22;9234;49.344;11.120;2023-03-03T15:41:11;16.60;60.40
18218;DHT22;9234;49.344;11.120;2023-03-03T15:43:59;16.60;61.00
18218;DHT22;9234;49.344;11.120;2023-03-03T15:46:48;16.70;61.60
18218;DHT22;9234;49.344;11.120;2023-03-03T15:52:51;16.30;61.70
18218;DHT22;9234;49.344;11.120;2023-03-03T15:55:37;16.30;62.50
18218;DHT22;9234;49.344;11.120;2023-03-03T15:58:50;16.20;62.50
18218;DHT22;9234;49.344;11.120;2023-03-03T16:01:40;16.10;62.20
18218;DHT22;9234;49.344;11.120;2023-03-03T16:04:14;16.00;63.30
18218;DHT22;9234;49.344;11.120;2023-03-03T16:06:51;15.80;63.10
18218;DHT22;9234;49.344;11.120;2023-03-03T16:09:35;15.60;63.50
18218;DHT22;9234;49.344;11.120;2023-03-03T16:12:20;15.40;64.10
18218;DHT22;9234;49.344;11.120;2023-03-03T16:15:13;15.10;64.30
18218;DHT22;9234;49.344;11.120;2023-03-03T16:17:55;14.70;65.00
18218;DHT22;9234;49.344;11.120;2023-03-03T16:20:35;14.30;65.90
18218;DHT22;9234;49.344;11.120;2023-03-03T16:23:30;13.90;66.80
18218;DHT22;9234;49.344;11.120;2023-03-03T16:26:09;13.60;67.60
18218;DHT22;9234;49.344;11.120;2023-03-03T16:29:04;13.30;68.80
18218;DHT22;9234;49.344;11.120;2023-03-03T16:31:48;12.80;70.50
18218;DHT22;9234;49.344;11.120;2023-03-03T16:34:28;12.40;71.30
18218;DHT22;9234;49.344;11.120;2023-03-03T16:37:06;12.20;71.90
18218;DHT22;9234;49.344;11.120;2023-03-03T16:39:50;12.00;72.60
18218;DHT22;9234;49.344;11.120;2023-03-03T16:42:28;11.80;73.60
18218;DHT22;9234;49.344;11.120;2023-03-03T16:45:05;11.50;74.50
18218;DHT22;9234;49.344;11.120;2023-03-03T16:48:07;11.30;75.70
18218;DHT22;9234;49.344;11.120;2023-03-03T16:50:47;11.10;76.00
18218;DHT22;9234;49.344;11.120;2023-03-03T16:53:38;10.90;77.30
18218;DHT22;9234;49.344;11.120;2023-03-03T16:56:21;10.60;77.60
18218;DHT22;9234;49.344;11.120;2023-03-03T17:02:25;10.20;78.80